Time;durP1;ratioP1;P1;durP2;ratioP2;P2;SDS_P1;SDS_P2;PMS_P1;PMS_P2;Temp;Humidity;BMP_temperature;BMP_pressure;BME280_temperature;BME280_humidity;BME280_pressure;Samples;Min_cycle;Max_cycle;Signal;HPM_P1;HPM_P2
2023/01/05 00:02:25;;;;;;;26.67;20.23;;;14.10;90.40;;;;;;6309139;22;19999;-77
2023/01/05 00:04:51;;;;;;;28.60;20.33;;;14.00;90.40;;;;;;6309081;22;20026;-77
2023/01/05 00:07:16;;;;;;;27.83;20.40;;;14.00;90.40;;;;;;6336401;22;20003;-77
2023/01/05 00:09:42;;;;;;;27.55;20.27;;;14.10;90.50;;;;;;6335937;22;20013;-77
2023/01/05 00:23:08;;;;;;;28.77;20.17;;;14.10;90.40;;;;;;6336515;22;20013;-77
2023/01/05 00:25:39;;;;;;;25.30;18.90;;;14.10;90.40;;;;;;6336335;22;19999;-77
2023/01/05 00:28:05;;;;;;;27.52;19.58;;;14.10;90.40;;;;;;6336487;22;20064;-78
2023/01/05 00:30:44;;;;;;;25.95;19.00;;;14.10;90.40;;;;;;6334758;22;20675;-77
2023/01/05 00:33:11;;;;;;;27.20;20.38;;;14.10;90.40;;;;;;6335329;22;20494;-77
2023/01/05 00:35:37;;;;;;;29.92;20.55;;;14.00;90.30;;;;;;6336096;22;19999;-78
2023/01/05 00:38:04;;;;;;;27.52;20.08;;;14.10;90.40;;;;;;6335839;22;20005;-77
2023/01/05 00:40:30;;;;;;;32.00;20.80;;;14.10;90.40;;;;;;6334290;22;20479;-77
2023/01/05 00:42:55;;;;;;;27.52;19.88;;;14.10;90.40;;;;;;6336784;22;19999;-78
2023/01/05 00:45:21;;;;;;;30.25;22.27;;;14.10;90.50;;;;;;6336120;22;20318;-81
2023/01/05 00:47:47;;;;;;;38.42;27.75;;;14.10;90.40;;;;;;6336126;22;20018;-77
2023/01/05 00:50:16;;;;;;;34.58;24.25;;;14.10;90.50;;;;;;6336271;22;20056;-77
2023/01/05 00:52:42;;;;;;;31.67;22.08;;;14.10;90.60;;;;;;6336384;22;20013;-77
2023/01/05 00:55:08;;;;;;;33.22;24.10;;;14.00;90.70;;;;;;6336787;22;20305;-78
2023/01/05 00:57:34;;;;;;;31.33;22.10;;;14.00;90.70;;;;;;6336100;22;20032;-78
2023/01/05 01:00:02;;;;;;;29.38;21.80;;;14.00;90.80;;;;;;6335466;22;20007;-78
2023/01/05 01:02:28;;;;;;;32.10;22.17;;;14.00;90.70;;;;;;6338169;22;20029;-78
2023/01/05 01:04:54;;;;;;;28.95;21.52;;;14.00;90.70;;;;;;6337955;22;20405;-78
2023/01/05 01:07:19;;;;;;;30.95;21.77;;;13.90;90.70;;;;;;6337761;22;20002;-81
2023/01/05 01:09:45;;;;;;;30.83;22.38;;;14.00;90.70;;;;;;6337640;22;20007;-78
2023/01/05 01:12:11;;;;;;;30.85;22.55;;;13.90;90.80;;;;;;6339433;22;20401;-78
2023/01/05 01:14:38;;;;;;;29.00;21.27;;;13.90;90.90;;;;;;6339018;22;20006;-78
2023/01/05 01:17:04;;;;;;;32.15;22.88;;;13.90;90.80;;;;;;6339230;22;20056;-77
2023/01/05 01:19:29;;;;;;;33.55;23.63;;;13.90;90.80;;;;;;6338747;22;19995;-76
2023/01/05 01:21:55;;;;;;;30.13;22.70;;;13.90;90.70;;;;;;6339515;22;19999;-76
2023/01/05 01:24:26;;;;;;;29.65;23.08;;;13.80;90.70;;;;;;6311736;22;20090;-77
2023/01/05 01:26:53;;;;;;;31.42;23.27;;;13.80;90.90;;;;;;6339279;22;20006;-76
2023/01/05 01:29:20;;;;;;;28.27;22.27;;;13.70;90.90;;;;;;6339165;22;19999;-76
2023/01/05 01:31:47;;;;;;;30.05;23.10;;;13.70;91.00;;;;;;6339379;22;20010;-77
2023/01/05 01:34:14;;;;;;;32.65;23.70;;;13.60;91.10;;;;;;6339263;22;19999;-77
2023/01/05 01:36:39;;;;;;;29.48;22.08;;;13.50;91.30;;;;;;6338782;22;20007;-77
2023/01/05 01:39:05;;;;;;;30.98;23.35;;;13.40;91.40;;;;;;6339436;22;20327;-77
2023/01/05 01:41:31;;;;;;;30.98;24.10;;;13.30;91.50;;;;;;6339140;22;20029;-76
2023/01/05 01:43:57;;;;;;;35.20;24.00;;;13.20;91.60;;;;;;6339217;22;20453;-76
2023/01/05 01:46:24;;;;;;;32.13;23.42;;;13.20;91.70;;;;;;6339052;22;20011;-77
2023/01/05 01:49:04;;;;;;;30.40;22.42;;;13.10;92.10;;;;;;6339412;22;19999;-77
2023/01/05 01:51:36;;;;;;;29.48;22.08;;;13.00;92.10;;;;;;6339221;22;20109;-77
2023/01/05 01:54:05;;;;;;;29.15;21.40;;;13.00;92.00;;;;;;6338867;22;19999;-77
2023/01/05 01:56:38;;;;;;;29.02;21.40;;;12.90;92.20;;;;;;6338509;22;20003;-76
2023/01/05 01:59:04;;;;;;;30.10;21.52;;;12.90;92.20;;;;;;6338946;22;20078;-77
2023/01/05 02:01:30;;;;;;;30.67;22.95;;;12.80;92.30;;;;;;6339406;22;20015;-77
2023/01/05 02:03:56;;;;;;;27.80;20.88;;;12.80;92.40;;;;;;6337892;22;19995;-77
2023/01/05 02:06:22;;;;;;;30.80;22.25;;;12.70;92.30;;;;;;6338475;22;20325;-77
2023/01/05 02:08:48;;;;;;;29.38;21.70;;;12.70;92.40;;;;;;6338817;22;20360;-77
2023/01/05 02:11:42;;;;;;;30.55;23.27;;;12.70;92.50;;;;;;6338823;22;20006;-78
2023/01/05 02:14:20;;;;;;;29.80;22.15;;;12.70;92.60;;;;;;6338597;22;19995;-78
2023/01/05 02:17:04;;;;;;;27.88;21.33;;;12.70;92.60;;;;;;6338710;22;20083;-78
2023/01/05 02:19:35;;;;;;;29.38;23.00;;;12.70;92.60;;;;;;6338624;22;20432;-78
2023/01/05 02:22:35;;;;;;;28.80;21.70;;;12.60;92.60;;;;;;6338628;22;20044;-78
2023/01/05 02:25:24;;;;;;;31.55;23.25;;;12.60;92.60;;;;;;6338764;22;20022;-79
2023/01/05 02:27:58;;;;;;;27.30;21.58;;;12.50;92.60;;;;;;6323823;22;20075;-78
2023/01/05 02:30:45;;;;;;;28.45;20.88;;;12.50;92.60;;;;;;6337773;22;20074;-79
2023/01/05 02:33:20;;;;;;;26.98;20.95;;;12.50;92.70;;;;;;6336010;22;20003;-78
2023/01/05 02:36:10;;;;;;;29.20;21.80;;;12.50;92.80;;;;;;6310756;22;20007;-77
2023/01/05 02:38:47;;;;;;;27.52;20.33;;;12.50;92.80;;;;;;6337360;22;20010;-76
2023/01/05 02:41:20;;;;;;;26.17;21.17;;;12.40;92.70;;;;;;6310788;22;20094;-77
2023/01/05 02:43:45;;;;;;;26.88;20.70;;;12.40;92.80;;;;;;6338432;22;20003;-77
2023/01/05 02:46:11;;;;;;;28.35;21.40;;;12.30;92.80;;;;;;6338521;22;20003;-78
2023/01/05 02:48:38;;;;;;;23.60;18.80;;;12.30;92.70;;;;;;6338712;22;19999;-78
2023/01/05 02:51:09;;;;;;;24.58;19.10;;;12.30;92.70;;;;;;6338876;22;20322;-78
2023/01/05 02:53:40;;;;;;;21.17;17.42;;;12.20;92.70;;;;;;6338593;22;20033;-78
2023/01/05 02:56:12;;;;;;;21.13;17.20;;;12.10;92.70;;;;;;6338498;22;20002;-78
2023/01/05 02:58:48;;;;;;;20.85;17.08;;;12.00;92.80;;;;;;6338321;22;20071;-78
2023/01/05 03:01:20;;;;;;;20.25;16.80;;;12.00;92.90;;;;;;6335208;22;20693;-77
2023/01/05 03:04:04;;;;;;;25.85;20.38;;;12.00;92.90;;;;;;6334455;22;19999;-77
2023/01/05 03:07:03;;;;;;;21.50;16.90;;;12.00;92.90;;;;;;6338116;22;20025;-78
2023/01/05 03:09:36;;;;;;;20.83;16.77;;;11.90;92.90;;;;;;6337564;22;20013;-77
2023/01/05 03:15:23;;;;;;;25.00;18.42;;;11.80;92.90;;;;;;6337960;22;20014;-78
2023/01/05 03:17:56;;;;;;;21.17;17.00;;;11.80;93.00;;;;;;6338472;22;20002;-78
2023/01/05 03:20:25;;;;;;;25.15;19.73;;;11.80;93.00;;;;;;6338600;22;20374;-78
2023/01/05 03:38:00;;;;;;;21.08;16.50;;;11.50;93.70;;;;;;6338605;22;20033;-79
2023/01/05 03:40:29;;;;;;;23.15;18.17;;;11.60;93.50;;;;;;6310827;22;19999;-79
2023/01/05 03:42:56;;;;;;;19.52;16.00;;;11.60;93.40;;;;;;6339917;22;19999;-78
2023/01/05 03:45:24;;;;;;;19.92;16.63;;;11.60;93.50;;;;;;6340107;22;20002;-79
2023/01/05 03:47:50;;;;;;;21.58;17.38;;;11.60;93.60;;;;;;6340103;22;20091;-79
2023/01/05 03:50:15;;;;;;;23.23;17.92;;;11.60;93.60;;;;;;6340553;22;20002;-78
2023/01/05 03:52:41;;;;;;;21.42;16.45;;;11.60;93.60;;;;;;6340315;22;20440;-79
2023/01/05 03:55:08;;;;;;;21.27;17.08;;;11.60;93.60;;;;;;6340151;22;20007;-78
2023/01/05 03:57:34;;;;;;;21.58;16.60;;;11.60;93.50;;;;;;6339733;22;20329;-79
2023/01/05 04:00:00;;;;;;;25.20;19.10;;;11.60;93.50;;;;;;6312278;22;20009;-78
2023/01/05 04:02:26;;;;;;;23.25;17.50;;;11.60;93.50;;;;;;6340534;22;20297;-79
2023/01/05 04:04:51;;;;;;;22.05;17.83;;;11.60;93.40;;;;;;6340107;22;20006;-79
2023/01/05 04:07:17;;;;;;;23.52;17.13;;;11.60;93.70;;;;;;6340042;22;20026;-79
2023/01/05 04:09:43;;;;;;;22.98;17.38;;;11.60;93.40;;;;;;6340321;22;20087;-78
2023/01/05 04:12:08;;;;;;;19.83;15.55;;;11.60;93.40;;;;;;6340021;22;20443;-78
2023/01/05 04:14:34;;;;;;;19.30;16.13;;;11.60;93.40;;;;;;6340491;22;20002;-79
2023/01/05 04:16:59;;;;;;;21.55;17.10;;;11.60;93.40;;;;;;6339699;22;20003;-79
2023/01/05 04:19:25;;;;;;;18.08;16.10;;;11.60;93.40;;;;;;6339709;22;19999;-78
2023/01/05 04:21:51;;;;;;;18.45;15.45;;;11.50;93.40;;;;;;6339332;22;19999;-79
2023/01/05 04:24:16;;;;;;;19.73;15.88;;;11.50;93.40;;;;;;6339520;22;20072;-78
2023/01/05 04:26:42;;;;;;;19.52;16.38;;;11.50;93.50;;;;;;6339517;22;20006;-79
2023/01/05 04:29:10;;;;;;;20.65;16.13;;;11.50;93.60;;;;;;6339804;22;20045;-77
2023/01/05 04:31:36;;;;;;;18.38;15.48;;;11.50;93.60;;;;;;6339495;22;20005;-76
2023/01/05 04:34:01;;;;;;;20.27;16.00;;;11.50;93.60;;;;;;6339468;22;19998;-76
2023/01/05 04:36:27;;;;;;;20.65;15.73;;;11.50;93.60;;;;;;6339844;22;20010;-76
2023/01/05 04:38:52;;;;;;;21.08;17.30;;;11.60;93.60;;;;;;6339698;22;20000;-76
2023/01/05 04:41:18;;;;;;;21.27;17.10;;;11.50;93.60;;;;;;6339584;22;19995;-77
2023/01/05 04:43:44;;;;;;;19.20;16.33;;;11.60;93.60;;;;;;6312118;22;20003;-76
2023/01/05 04:46:10;;;;;;;18.58;15.82;;;11.50;93.60;;;;;;6339470;22;20051;-78
2023/01/05 04:48:35;;;;;;;25.70;16.27;;;11.50;93.60;;;;;;6339538;22;20413;-78
2023/01/05 04:51:01;;;;;;;20.67;17.02;;;11.50;93.50;;;;;;6340027;22;20006;-78
2023/01/05 04:53:26;;;;;;;20.70;17.15;;;11.50;93.60;;;;;;6339682;22;20002;-78
2023/01/05 04:55:52;;;;;;;18.65;15.70;;;11.50;93.70;;;;;;6340696;22;20025;-78
2023/01/05 04:58:18;;;;;;;20.95;16.63;;;11.50;93.60;;;;;;6344484;22;20006;-79
2023/01/05 05:00:44;;;;;;;21.70;17.20;;;11.40;93.60;;;;;;6339324;22;20092;-78
2023/01/05 05:03:10;;;;;;;19.38;16.48;;;11.50;93.80;;;;;;6312043;22;20026;-78
2023/01/05 05:05:35;;;;;;;20.90;16.83;;;11.40;93.80;;;;;;6339359;22;20413;-79
2023/01/05 05:08:01;;;;;;;19.90;17.02;;;11.40;93.90;;;;;;6339438;22;20003;-79
2023/01/05 05:10:27;;;;;;;21.02;17.08;;;11.50;93.90;;;;;;6339510;22;20003;-79
2023/01/05 05:12:53;;;;;;;20.95;16.27;;;11.50;93.80;;;;;;6339141;22;19999;-78
2023/01/05 05:15:20;;;;;;;21.08;16.90;;;11.50;93.80;;;;;;6337848;22;20031;-79
2023/01/05 05:17:45;;;;;;;22.80;17.60;;;11.50;93.80;;;;;;6338809;22;20436;-79
2023/01/05 05:20:11;;;;;;;20.42;16.92;;;11.50;93.80;;;;;;6310979;22;19999;-79
2023/01/05 05:22:37;;;;;;;21.80;17.65;;;11.50;93.90;;;;;;6338843;22;19999;-79
2023/01/05 05:25:03;;;;;;;25.33;18.83;;;11.50;93.90;;;;;;6338908;22;20124;-79
2023/01/05 05:27:28;;;;;;;22.08;17.10;;;11.50;93.90;;;;;;6311253;22;20002;-79
2023/01/05 05:29:54;;;;;;;25.75;19.77;;;11.40;93.90;;;;;;6339083;22;20056;-79
2023/01/05 05:32:20;;;;;;;21.02;16.60;;;11.40;93.90;;;;;;6311738;22;20555;-77
2023/01/05 05:34:45;;;;;;;21.83;16.67;;;11.40;94.00;;;;;;6311713;22;20437;-78
2023/01/05 05:37:11;;;;;;;22.13;17.38;;;11.40;94.00;;;;;;6338890;22;20003;-77
2023/01/05 05:39:37;;;;;;;25.02;19.23;;;11.30;94.10;;;;;;6339077;22;20298;-78
2023/01/05 05:42:03;;;;;;;22.98;17.63;;;11.40;94.00;;;;;;6339415;22;20048;-77
2023/01/05 05:44:28;;;;;;;22.00;17.83;;;11.30;94.00;;;;;;6311435;22;20489;-76
2023/01/05 05:46:54;;;;;;;22.98;18.30;;;11.40;94.10;;;;;;6338879;22;20014;-71
2023/01/05 05:49:20;;;;;;;23.48;18.20;;;11.30;94.10;;;;;;6339046;22;20037;-71
2023/01/05 05:51:45;;;;;;;22.88;18.40;;;11.40;94.40;;;;;;6339130;22;20363;-71
2023/01/05 05:54:11;;;;;;;23.15;17.92;;;11.40;94.10;;;;;;6339228;22;20006;-71
2023/01/05 05:56:37;;;;;;;25.50;18.65;;;11.40;94.20;;;;;;6339250;22;20022;-70
2023/01/05 05:59:02;;;;;;;24.85;18.00;;;11.40;94.20;;;;;;6339049;22;20386;-71
2023/01/05 06:01:28;;;;;;;22.98;17.60;;;11.40;94.10;;;;;;6338976;22;20417;-70
2023/01/05 06:03:54;;;;;;;22.40;17.60;;;11.40;94.10;;;;;;6337881;22;19998;-71
2023/01/05 06:06:19;;;;;;;22.77;17.92;;;11.40;94.10;;;;;;6338430;22;20019;-70
2023/01/05 06:08:45;;;;;;;25.02;18.98;;;11.40;94.20;;;;;;6338778;22;20417;-70
2023/01/05 06:11:11;;;;;;;22.80;18.08;;;11.40;94.20;;;;;;6339192;22;20003;-71
2023/01/05 06:13:36;;;;;;;24.23;18.98;;;11.40;94.20;;;;;;6338688;22;19999;-70
2023/01/05 06:16:02;;;;;;;24.17;18.38;;;11.40;94.10;;;;;;6339076;22;20002;-70
2023/01/05 06:18:28;;;;;;;23.55;18.27;;;11.40;94.20;;;;;;6338806;22;20437;-70
2023/01/05 06:20:54;;;;;;;24.67;18.80;;;11.40;94.10;;;;;;6338626;22;20022;-71
2023/01/05 06:23:20;;;;;;;22.23;17.02;;;11.40;94.10;;;;;;6310779;22;20063;-70
2023/01/05 06:25:45;;;;;;;26.67;19.05;;;11.40;94.20;;;;;;6338156;22;20439;-70
2023/01/05 06:28:11;;;;;;;24.55;19.38;;;11.40;94.20;;;;;;6339345;22;20014;-71
2023/01/05 06:30:37;;;;;;;25.23;18.98;;;11.40;94.20;;;;;;6311166;22;20018;-71
2023/01/05 06:33:03;;;;;;;25.42;19.95;;;11.40;94.30;;;;;;6338791;22;20010;-71
2023/01/05 06:35:28;;;;;;;23.67;18.27;;;11.40;94.20;;;;;;6338758;22;20078;-71
2023/01/05 06:37:54;;;;;;;26.90;18.63;;;11.40;94.30;;;;;;6338788;22;20007;-71
2023/01/05 06:40:20;;;;;;;25.42;18.70;;;11.40;94.20;;;;;;6338861;22;20002;-71
2023/01/05 06:42:46;;;;;;;24.13;18.98;;;11.50;94.20;;;;;;6339007;22;20506;-71
2023/01/05 06:45:14;;;;;;;24.60;19.42;;;11.40;94.30;;;;;;6338952;22;20022;-71
2023/01/05 06:47:40;;;;;;;25.38;19.20;;;11.50;94.30;;;;;;6310428;22;20462;-71
2023/01/05 06:50:06;;;;;;;25.38;18.67;;;11.50;94.20;;;;;;6338590;22;20025;-71
2023/01/05 06:52:38;;;;;;;22.48;17.67;;;11.50;94.20;;;;;;6338655;22;19999;-70
2023/01/05 06:55:09;;;;;;;24.52;18.58;;;11.50;94.20;;;;;;6310742;22;20003;-71
2023/01/05 06:57:35;;;;;;;25.95;19.08;;;11.50;94.20;;;;;;6338039;22;20003;-70
2023/01/05 07:00:11;;;;;;;23.80;18.52;;;11.50;94.20;;;;;;6338091;22;19995;-70
2023/01/05 07:02:37;;;;;;;21.48;17.33;;;11.50;94.40;;;;;;6338445;22;19998;-71
2023/01/05 07:05:03;;;;;;;23.17;17.85;;;11.60;94.30;;;;;;6337645;22;20005;-70
2023/01/05 07:07:29;;;;;;;24.45;18.95;;;11.60;94.30;;;;;;6338309;22;20078;-70
2023/01/05 07:09:54;;;;;;;26.52;19.25;;;11.60;94.30;;;;;;6338586;22;20483;-71
2023/01/05 07:12:20;;;;;;;23.45;18.77;;;11.60;94.20;;;;;;6338552;22;20440;-70
2023/01/05 07:14:46;;;;;;;24.40;19.35;;;11.60;94.20;;;;;;6311103;22;20364;-70
2023/01/05 07:17:12;;;;;;;26.35;19.08;;;11.70;94.20;;;;;;6339416;22;20019;-70
2023/01/05 07:19:38;;;;;;;25.63;19.27;;;11.70;94.10;;;;;;6340240;22;20006;-71
2023/01/05 07:22:04;;;;;;;26.80;20.63;;;11.70;94.10;;;;;;6340018;22;20048;-71
2023/01/05 07:24:30;;;;;;;26.45;20.05;;;11.70;94.10;;;;;;6340222;22;19999;-71
2023/01/05 07:26:57;;;;;;;28.70;19.15;;;11.70;94.00;;;;;;6340206;22;20070;-71
2023/01/05 07:29:23;;;;;;;26.15;19.35;;;11.70;94.00;;;;;;6340387;22;20425;-71
2023/01/05 07:31:51;;;;;;;24.88;19.63;;;11.70;94.00;;;;;;6340164;22;20007;-71
2023/01/05 07:34:17;;;;;;;26.08;18.75;;;11.70;94.10;;;;;;6339340;22;20464;-70
2023/01/05 07:36:43;;;;;;;26.75;20.08;;;11.60;94.10;;;;;;6340054;22;20080;-71
2023/01/05 07:39:09;;;;;;;25.85;19.30;;;11.60;94.10;;;;;;6340350;22;19995;-70
2023/01/05 07:41:34;;;;;;;28.45;20.38;;;11.70;94.10;;;;;;6339939;22;20002;-71
2023/01/05 07:44:00;;;;;;;25.83;19.08;;;11.70;94.10;;;;;;6340055;22;20003;-71
2023/01/05 07:46:26;;;;;;;29.15;20.75;;;11.70;94.00;;;;;;6339147;22;20087;-70
2023/01/05 07:48:52;;;;;;;26.60;19.50;;;11.70;94.00;;;;;;6311849;22;20033;-71
2023/01/05 07:51:18;;;;;;;26.20;20.52;;;11.70;94.00;;;;;;6312249;22;20326;-71
2023/01/05 07:53:43;;;;;;;27.33;20.15;;;11.70;94.00;;;;;;6339840;22;20006;-70
2023/01/05 07:56:11;;;;;;;25.45;19.38;;;11.70;94.10;;;;;;6339229;22;20453;-72
2023/01/05 07:58:36;;;;;;;29.15;20.45;;;11.70;94.10;;;;;;6339573;22;20002;-71
2023/01/05 08:01:07;;;;;;;28.38;20.17;;;11.70;94.20;;;;;;6339725;22;20380;-71
2023/01/05 08:03:33;;;;;;;29.08;19.90;;;11.70;94.20;;;;;;6339931;22;19999;-71
2023/01/05 08:06:07;;;;;;;26.02;19.38;;;11.70;94.10;;;;;;6339392;22;20044;-71
2023/01/05 08:08:33;;;;;;;28.15;20.40;;;11.70;94.10;;;;;;6339567;22;20003;-72
2023/01/05 08:11:02;;;;;;;26.63;20.60;;;11.70;94.10;;;;;;6339555;22;20295;-71
2023/01/05 08:16:12;;;;;;;24.90;19.02;;;11.80;94.10;;;;;;6339678;22;20388;-71
2023/01/05 08:18:38;;;;;;;29.00;21.55;;;11.80;94.10;;;;;;6340035;22;20031;-71
2023/01/05 08:21:04;;;;;;;27.42;20.40;;;11.80;94.00;;;;;;6339589;22;20002;-72
2023/01/05 08:23:31;;;;;;;25.80;19.30;;;11.80;94.00;;;;;;6339246;22;20086;-71
2023/01/05 08:26:03;;;;;;;28.20;19.65;;;11.80;94.10;;;;;;6339796;22;19995;-71
2023/01/05 08:28:29;;;;;;;27.77;19.95;;;11.80;94.10;;;;;;6340239;22;20003;-71
2023/01/05 08:31:07;;;;;;;25.65;19.35;;;11.80;94.10;;;;;;6339897;22;20057;-71
2023/01/05 08:33:33;;;;;;;25.48;20.17;;;11.80;94.10;;;;;;6337939;22;20412;-70
2023/01/05 08:35:59;;;;;;;25.15;18.10;;;11.90;94.20;;;;;;6338293;22;20010;-71
2023/01/05 08:38:25;;;;;;;23.65;18.48;;;11.80;94.10;;;;;;6311397;22;20006;-71
2023/01/05 08:40:51;;;;;;;26.63;19.10;;;11.90;94.10;;;;;;6339201;22;20065;-77
2023/01/05 08:43:17;;;;;;;24.83;18.42;;;12.00;94.00;;;;;;6339228;22;20069;-77
2023/01/05 08:45:47;;;;;;;27.55;19.48;;;12.00;94.00;;;;;;6339496;22;20056;-77
2023/01/05 08:48:12;;;;;;;25.70;19.88;;;12.00;94.00;;;;;;6311973;22;20019;-78
2023/01/05 08:50:38;;;;;;;27.27;20.10;;;12.00;93.80;;;;;;6339968;22;20006;-77
2023/01/05 08:53:04;;;;;;;25.70;19.77;;;12.10;93.80;;;;;;6338822;22;20003;-71
2023/01/05 08:55:29;;;;;;;26.17;19.85;;;12.10;93.80;;;;;;6339309;22;20003;-71
2023/01/05 08:57:56;;;;;;;24.83;19.20;;;12.10;93.80;;;;;;6339242;22;19998;-71
2023/01/05 09:00:22;;;;;;;26.88;20.27;;;12.10;93.80;;;;;;6338670;22;20002;-71
2023/01/05 09:02:48;;;;;;;25.50;18.90;;;12.10;93.80;;;;;;6304639;22;20501;-71
2023/01/05 09:05:14;;;;;;;28.25;20.15;;;12.20;93.80;;;;;;6337924;22;20024;-72
2023/01/05 09:07:40;;;;;;;29.00;21.15;;;12.30;93.80;;;;;;6336835;22;20003;-77
2023/01/05 09:10:07;;;;;;;29.17;21.63;;;12.30;93.60;;;;;;6310784;22;20439;-77
2023/01/05 09:12:37;;;;;;;28.63;21.15;;;12.30;93.30;;;;;;6308943;22;20310;-77
2023/01/05 09:15:04;;;;;;;;;;;12.30;93.20;;;;;;6338312;22;20011;-77
2023/01/05 09:17:30;;;;;;;24.83;18.65;;;12.20;93.20;;;;;;6338373;22;20347;-77
2023/01/05 09:19:56;;;;;;;27.75;20.02;;;12.20;93.30;;;;;;6338281;22;20070;-78
2023/01/05 09:22:22;;;;;;;25.58;19.80;;;12.20;93.30;;;;;;6333281;22;20019;-76
2023/01/05 09:24:48;;;;;;;24.83;18.20;;;12.20;93.20;;;;;;6337463;22;19999;-78
2023/01/05 09:27:14;;;;;;;25.00;18.80;;;12.30;93.20;;;;;;6338478;22;20055;-77
2023/01/05 09:29:39;;;;;;;25.00;19.40;;;12.30;93.10;;;;;;6338212;22;20135;-79
2023/01/05 09:32:06;;;;;;;23.17;17.90;;;12.30;93.10;;;;;;6311047;22;20014;-77
2023/01/05 09:34:32;;;;;;;24.52;19.08;;;12.40;93.10;;;;;;6337336;22;20337;-77
2023/01/05 09:36:58;;;;;;;25.80;19.27;;;12.40;93.00;;;;;;6338063;22;20014;-77
2023/01/05 09:39:24;;;;;;;25.10;17.65;;;12.50;93.00;;;;;;6337870;22;20447;-78
2023/01/05 09:41:54;;;;;;;26.08;19.60;;;12.50;93.00;;;;;;6310529;22;20037;-78
2023/01/05 09:44:19;;;;;;;24.85;17.45;;;12.60;93.00;;;;;;6338466;22;19999;-78
2023/01/05 09:46:48;;;;;;;24.23;18.55;;;12.70;92.90;;;;;;6337057;22;20421;-78
2023/01/05 09:49:15;;;;;;;26.58;18.95;;;12.70;92.70;;;;;;6338096;22;20002;-77
2023/01/05 09:51:42;;;;;;;25.58;19.02;;;12.80;92.50;;;;;;6337908;22;20003;-77
2023/01/05 09:54:16;;;;;;;24.92;19.02;;;12.80;92.60;;;;;;6338809;22;19999;-78
2023/01/05 09:56:45;;;;;;;26.80;19.45;;;12.80;92.50;;;;;;6337960;22;20413;-77
2023/01/05 09:59:13;;;;;;;24.00;17.92;;;12.80;92.40;;;;;;6338334;22;20003;-77
2023/01/05 10:01:40;;;;;;;24.85;18.70;;;12.80;92.20;;;;;;6338492;22;19999;-78
2023/01/05 10:04:19;;;;;;;24.85;18.40;;;12.80;92.10;;;;;;6338348;22;19995;-77
2023/01/05 10:07:00;;;;;;;23.20;17.50;;;12.80;92.10;;;;;;6338292;22;19999;-78
2023/01/05 10:09:32;;;;;;;24.80;17.30;;;12.80;92.10;;;;;;6337937;22;20070;-78
2023/01/05 10:15:11;;;;;;;26.67;18.45;;;12.70;92.20;;;;;;6338483;22;20453;-78
2023/01/05 10:17:38;;;;;;;24.25;18.52;;;12.80;92.10;;;;;;6327189;22;20444;-78
2023/01/05 10:20:18;;;;;;;25.35;18.33;;;12.80;92.00;;;;;;6338149;22;20005;-78
2023/01/05 10:22:52;;;;;;;28.38;20.02;;;12.70;92.10;;;;;;6338062;22;19998;-78
2023/01/05 10:25:26;;;;;;;25.88;19.17;;;12.80;92.10;;;;;;6338653;22;20343;-77
2023/01/05 10:28:09;;;;;;;30.88;19.50;;;12.80;92.10;;;;;;6338806;22;19998;-78
2023/01/05 10:30:54;;;;;;;27.27;18.23;;;12.80;92.10;;;;;;6338092;22;20325;-78
2023/01/05 10:33:31;;;;;;;25.73;18.33;;;12.80;92.00;;;;;;6337807;22;20076;-77
2023/01/05 10:36:13;;;;;;;25.30;19.17;;;12.80;92.10;;;;;;6338033;22;20617;-77
2023/01/05 10:38:57;;;;;;;24.45;18.70;;;12.90;92.10;;;;;;6338577;22;20006;-77
2023/01/05 10:41:54;;;;;;;28.50;19.90;;;12.90;92.10;;;;;;6338482;22;20340;-76
2023/01/05 10:44:33;;;;;;;28.58;20.10;;;12.90;92.00;;;;;;6274898;22;20007;-77
2023/01/05 10:46:59;;;;;;;26.98;19.38;;;12.80;91.90;;;;;;6338418;22;20015;-77
2023/01/05 10:49:29;;;;;;;25.30;17.70;;;12.80;92.00;;;;;;6338239;22;20055;-77
2023/01/05 10:52:01;;;;;;;19.42;13.32;;;12.80;92.00;;;;;;6339946;22;19999;-77
2023/01/05 10:54:48;;;;;;;23.33;18.17;;;12.80;92.00;;;;;;6340884;22;20007;-77
2023/01/05 10:57:29;;;;;;;33.78;24.35;;;12.80;92.00;;;;;;6338038;22;20027;-77
2023/01/05 11:00:05;;;;;;;24.58;18.70;;;12.90;92.00;;;;;;6335423;22;20074;-77
2023/01/05 11:02:36;;;;;;;23.95;17.85;;;12.80;92.00;;;;;;6336266;22;20025;-77
2023/01/05 11:05:10;;;;;;;26.05;18.98;;;12.90;91.90;;;;;;6337546;22;19999;-77
2023/01/05 11:07:57;;;;;;;23.15;17.80;;;12.80;92.00;;;;;;6337153;22;20041;-77
2023/01/05 11:10:38;;;;;;;27.00;19.13;;;12.90;92.00;;;;;;6333464;22;20367;-77
2023/01/05 11:13:22;;;;;;;26.10;18.95;;;12.90;92.00;;;;;;6307818;22;20060;-77
2023/01/05 11:15:53;;;;;;;23.42;18.05;;;12.90;92.00;;;;;;6337355;22;20003;-77
2023/01/05 11:18:41;;;;;;;25.33;19.00;;;12.90;92.00;;;;;;6337589;22;20476;-77
2023/01/05 11:21:17;;;;;;;24.33;17.88;;;12.90;92.00;;;;;;6309702;22;20354;-77
2023/01/05 11:23:46;;;;;;;27.85;18.95;;;12.90;92.10;;;;;;6309087;22;20007;-77
2023/01/05 11:26:18;;;;;;;25.08;18.50;;;13.00;92.00;;;;;;6337413;22;20026;-77
2023/01/05 11:29:02;;;;;;;27.95;18.70;;;13.00;91.90;;;;;;6309462;22;20013;-77
2023/01/05 11:31:41;;;;;;;24.38;17.90;;;13.00;91.80;;;;;;6309432;22;20464;-76
2023/01/05 11:34:34;;;;;;;24.00;18.48;;;13.00;91.90;;;;;;6337340;22;20010;-77
2023/01/05 11:37:15;;;;;;;23.92;18.10;;;13.00;91.70;;;;;;6337263;22;20034;-76
2023/01/05 11:39:46;;;;;;;24.88;17.98;;;13.10;91.60;;;;;;6337287;22;19995;-76
2023/01/05 11:42:12;;;;;;;23.58;17.52;;;13.10;91.70;;;;;;6337034;22;20456;-76
2023/01/05 11:44:58;;;;;;;22.98;17.88;;;13.10;91.60;;;;;;6337263;22;19995;-76
2023/01/05 11:48:02;;;;;;;25.35;18.15;;;13.10;91.50;;;;;;6336435;22;20042;-76
2023/01/05 11:50:31;;;;;;;23.40;17.80;;;13.10;91.60;;;;;;6335031;22;20006;-77
2023/01/05 11:53:01;;;;;;;23.47;17.73;;;13.20;91.50;;;;;;6336989;22;19999;-77
2023/01/05 11:55:38;;;;;;;24.23;17.67;;;13.20;91.50;;;;;;6336481;22;20022;-82
2023/01/05 11:58:19;;;;;;;24.48;17.63;;;13.20;91.40;;;;;;6336417;22;20007;-71
2023/01/05 12:00:47;;;;;;;23.80;17.55;;;13.20;91.40;;;;;;6308045;22;20044;-72
2023/01/05 12:03:16;;;;;;;24.80;17.55;;;13.30;91.40;;;;;;6332951;22;20002;-72
2023/01/05 12:06:01;;;;;;;24.65;18.27;;;13.30;91.30;;;;;;6336319;22;20006;-72
2023/01/05 12:08:37;;;;;;;23.25;17.88;;;13.30;91.20;;;;;;6336940;22;20003;-86
2023/01/05 12:11:08;;;;;;;22.30;16.00;;;13.30;91.10;;;;;;6336511;22;20006;-78
2023/01/05 12:14:12;;;;;;;23.98;17.42;;;13.30;91.10;;;;;;6306742;22;20333;-77
2023/01/05 12:16:55;;;;;;;22.10;17.17;;;13.30;91.10;;;;;;6336243;22;20643;-77
2023/01/05 12:19:24;;;;;;;25.83;18.05;;;13.30;91.00;;;;;;6335622;22;20070;-77
2023/01/05 12:21:55;;;;;;;23.65;17.30;;;13.30;91.00;;;;;;6336536;22;20027;-77
2023/01/05 12:24:27;;;;;;;25.65;17.63;;;13.30;90.90;;;;;;6335995;22;20534;-77
2023/01/05 12:26:55;;;;;;;25.17;17.70;;;13.30;90.80;;;;;;6336704;22;20018;-77
2023/01/05 12:29:24;;;;;;;23.60;16.88;;;13.20;90.80;;;;;;6335198;22;20094;-77
2023/01/05 12:32:05;;;;;;;24.33;17.20;;;13.20;90.90;;;;;;6336367;22;20030;-77
2023/01/05 12:35:00;;;;;;;25.35;18.02;;;13.20;91.10;;;;;;6335518;22;20003;-77
2023/01/05 12:37:32;;;;;;;24.30;17.02;;;13.10;90.90;;;;;;6296050;22;20014;-79
2023/01/05 12:40:31;;;;;;;24.75;17.20;;;13.10;90.90;;;;;;6337313;22;20047;-77
2023/01/05 12:43:16;;;;;;;22.90;17.58;;;13.10;91.00;;;;;;6336784;22;20345;-79
2023/01/05 12:45:51;;;;;;;23.98;17.05;;;13.10;91.10;;;;;;6337649;22;20028;-78
2023/01/05 12:48:40;;;;;;;22.92;16.05;;;13.10;91.00;;;;;;6336516;22;20364;-77
2023/01/05 12:51:38;;;;;;;23.67;17.33;;;13.20;91.10;;;;;;6319412;22;20014;-76
2023/01/05 12:54:08;;;;;;;23.15;16.60;;;13.20;91.00;;;;;;6336075;22;20007;-77
2023/01/05 12:56:46;;;;;;;22.83;18.13;;;13.30;90.90;;;;;;6336309;22;19998;-76
2023/01/05 12:59:38;;;;;;;23.33;17.60;;;13.20;90.90;;;;;;6308087;22;20017;-77
2023/01/05 13:02:25;;;;;;;24.08;17.10;;;13.20;91.00;;;;;;6336275;22;20393;-76
2023/01/05 13:05:03;;;;;;;23.70;17.23;;;13.20;91.00;;;;;;6336295;22;20601;-76
2023/01/05 13:07:51;;;;;;;25.45;17.67;;;13.20;91.00;;;;;;6336030;22;20002;-76
2023/01/05 13:10:43;;;;;;;27.13;17.38;;;13.20;91.00;;;;;;6335985;22;20003;-76
2023/01/05 13:13:27;;;;;;;23.83;17.05;;;13.20;90.90;;;;;;6334529;22;20002;-76
2023/01/05 13:15:57;;;;;;;22.63;16.58;;;13.20;90.90;;;;;;6336151;22;20018;-76
2023/01/05 13:18:24;;;;;;;25.05;16.80;;;13.20;90.80;;;;;;6336382;22;20092;-76
2023/01/05 13:20:57;;;;;;;23.55;16.92;;;13.20;90.80;;;;;;6336712;22;19998;-76